Briggsville, Arkansas
Current Conditions -  °F | °C
As of 4:53 PM on Friday 28 Nov 2014 (Local Time) from KMWT Reporting Station
Clear Clear  
Wind Chill: 57°   Ceiling: Unl
Heat Index: 57°   Visibility: 10mi
Dew Point: 39°   Wind: 0mph
Humidity: 51%   Direction: NA
Pressure: 30.05"   Gusts: NA
Location:  34.93°N, 93.49°W
Report Text: KMWT 282253Z AUTO 00000KT 10SM CLR 14/04 A3005 RMK AO2 SLP179 T01390039
Loading
Personal Weather Stations






























Interactive Weather Map New forecast layout! Learn more

10-Day Weather Forecast

Advertisements
Track Severe Weather on mobile